Time;durP1;ratioP1;P1;durP2;ratioP2;P2;SDS_P1;SDS_P2;PMS_P1;PMS_P2;Temp;Humidity;BMP_temperature;BMP_pressure;BME280_temperature;BME280_humidity;BME280_pressure;Samples;Min_cycle;Max_cycle;Signal;HPM_P1;HPM_P2
2022/06/19 00:01:57;;;;;;;;;;;;;;;15.43;100.00;101088.13;2614129;36;19947;-56
2022/06/19 00:04:25;;;;;;;;;;;;;;;15.44;100.00;101091.66;2613148;36;19982;-56
2022/06/19 00:06:57;;;;;;;;;;;;;;;15.26;100.00;101081.75;2614462;36;20360;-57
2022/06/19 00:09:25;;;;;;;;;;;;;;;15.24;100.00;101073.78;2613800;36;20323;-53
2022/06/19 00:11:55;;;;;;;;;;;;;;;15.24;100.00;101081.06;2613531;36;20321;-55
2022/06/19 00:14:23;;;;;;;;;;;;;;;15.23;100.00;101092.91;2613834;36;19950;-55
2022/06/19 00:16:51;;;;;;;;;;;;;;;15.24;100.00;101102.75;2614014;36;19946;-53
2022/06/19 00:19:19;;;;;;;;;;;;;;;15.33;100.00;101101.78;2613636;36;19951;-56
2022/06/19 00:21:47;;;;;;;;;;;;;;;15.37;100.00;101095.03;2613769;36;19950;-55
2022/06/19 00:24:18;;;;;;;;;;;;;;;15.41;100.00;101101.84;2614090;36;19950;-54
2022/06/19 00:26:52;;;;;;;;;;;;;;;15.36;100.00;101100.63;2615226;36;20340;-57
2022/06/19 00:29:20;;;;;;;;;;;;;;;15.32;100.00;101116.34;2613306;36;19947;-54
2022/06/19 00:31:48;;;;;;;;;;;;;;;15.34;100.00;101127.91;2613641;36;19950;-56
2022/06/19 00:34:16;;;;;;;;;;;;;;;15.30;100.00;101121.09;2613911;36;20361;-54
2022/06/19 00:36:49;;;;;;;;;;;;;;;15.38;100.00;101120.28;2613659;36;19977;-55
2022/06/19 00:39:20;;;;;;;;;;;;;;;15.57;100.00;101111.06;2614092;36;19958;-56
2022/06/19 00:41:48;;;;;;;;;;;;;;;15.52;100.00;101097.13;2614164;36;19977;-59
2022/06/19 00:44:17;;;;;;;;;;;;;;;15.47;100.00;101094.06;2612904;36;19946;-60
2022/06/19 00:46:47;;;;;;;;;;;;;;;15.53;100.00;101086.13;2615090;31;20359;-56
2022/06/19 00:49:17;;;;;;;;;;;;;;;15.53;100.00;101071.69;2612506;36;19981;-55
2022/06/19 00:51:46;;;;;;;;;;;;;;;15.57;100.00;101073.06;2614269;36;19947;-59
2022/06/19 00:54:16;;;;;;;;;;;;;;;15.46;100.00;101070.63;2612728;31;19970;-53
2022/06/19 00:56:46;;;;;;;;;;;;;;;15.44;100.00;101092.50;2614046;36;19989;-53
2022/06/19 00:59:16;;;;;;;;;;;;;;;15.45;100.00;101123.22;2614236;36;19951;-58
2022/06/19 01:01:45;;;;;;;;;;;;;;;15.50;100.00;101153.41;2614087;36;20483;-57
2022/06/19 01:04:16;;;;;;;;;;;;;;;15.47;100.00;101187.13;2612980;36;19981;-56
2022/06/19 01:06:44;;;;;;;;;;;;;;;15.33;100.00;101217.56;2614018;36;19951;-57
2022/06/19 01:09:13;;;;;;;;;;;;;;;15.18;100.00;101245.25;2613734;36;19954;-58
2022/06/19 01:11:41;;;;;;;;;;;;;;;15.23;100.00;101251.03;2614050;36;19994;-56
2022/06/19 01:14:14;;;;;;;;;;;;;;;15.17;100.00;101250.81;2613092;36;20386;-57
2022/06/19 01:16:42;;;;;;;;;;;;;;;15.04;100.00;101249.34;2614097;36;19958;-60
2022/06/19 01:19:12;;;;;;;;;;;;;;;15.28;100.00;101237.00;2613723;36;19950;-58
2022/06/19 01:21:45;;;;;;;;;;;;;;;15.42;100.00;101198.44;2613633;36;19947;-58
2022/06/19 01:24:17;;;;;;;;;;;;;;;15.33;100.00;101164.16;2612926;36;19955;-57
2022/06/19 01:26:53;;;;;;;;;;;;;;;15.27;100.00;101158.50;2614080;36;20439;-59
2022/06/19 01:29:20;;;;;;;;;;;;;;;15.10;100.00;101161.13;2613993;36;19955;-61
2022/06/19 01:31:49;;;;;;;;;;;;;;;15.17;100.00;101139.66;2613833;36;20054;-59
2022/06/19 01:34:32;;;;;;;;;;;;;;;15.27;100.00;101116.00;2612127;31;20015;-58
2022/06/19 01:37:03;;;;;;;;;;;;;;;15.28;100.00;101106.00;2613673;36;20042;-57
2022/06/19 01:39:32;;;;;;;;;;;;;;;15.27;100.00;101104.28;2613438;36;19974;-58
2022/06/19 01:42:04;;;;;;;;;;;;;;;15.22;100.00;101110.19;2613982;36;20503;-57
2022/06/19 01:44:32;;;;;;;;;;;;;;;15.15;100.00;101136.25;2612908;36;20279;-58
2022/06/19 01:47:01;;;;;;;;;;;;;;;15.18;100.00;101149.47;2613627;36;19951;-56
2022/06/19 01:49:30;;;;;;;;;;;;;;;15.22;100.00;101159.00;2613643;36;19973;-57
2022/06/19 01:51:58;;;;;;;;;;;;;;;15.13;100.00;101170.81;2613742;36;19957;-54
2022/06/19 01:54:29;;;;;;;;;;;;;;;15.16;100.00;101162.34;2613001;36;19950;-58
2022/06/19 01:56:58;;;;;;;;;;;;;;;15.00;100.00;101168.50;2613655;36;19950;-56
2022/06/19 01:59:31;;;;;;;;;;;;;;;14.98;100.00;101200.34;2614496;36;20463;-53
2022/06/19 02:02:01;;;;;;;;;;;;;;;14.96;100.00;101205.91;2613719;36;19950;-53
2022/06/19 02:04:29;;;;;;;;;;;;;;;14.98;100.00;101187.63;2612552;36;21405;-59
2022/06/19 02:07:00;;;;;;;;;;;;;;;15.07;100.00;101184.00;2611492;31;19969;-56
2022/06/19 02:09:28;;;;;;;;;;;;;;;14.89;100.00;101199.41;2612823;31;19954;-59
2022/06/19 02:11:58;;;;;;;;;;;;;;;14.81;100.00;101207.47;2613843;36;20436;-57
2022/06/19 02:14:28;;;;;;;;;;;;;;;14.73;100.00;101193.84;2613798;31;19947;-57
2022/06/19 02:16:56;;;;;;;;;;;;;;;14.76;100.00;101188.13;2613791;31;19997;-57
2022/06/19 02:19:25;;;;;;;;;;;;;;;14.69;100.00;101196.88;2613445;36;19951;-54
2022/06/19 02:21:55;;;;;;;;;;;;;;;14.66;100.00;101180.94;2611523;36;19950;-58
2022/06/19 02:24:24;;;;;;;;;;;;;;;14.70;100.00;101166.06;2612261;36;19970;-60
2022/06/19 02:26:53;;;;;;;;;;;;;;;14.74;100.00;101152.19;2612586;36;19952;-54
2022/06/19 02:29:22;;;;;;;;;;;;;;;14.64;100.00;101147.72;2613731;36;19985;-56
2022/06/19 02:31:53;;;;;;;;;;;;;;;14.73;100.00;101142.38;2613127;36;19950;-55
2022/06/19 02:34:23;;;;;;;;;;;;;;;14.70;100.00;101136.25;2613168;36;20005;-60
2022/06/19 02:36:53;;;;;;;;;;;;;;;14.70;100.00;101130.81;2613328;36;19950;-57
2022/06/19 02:39:34;;;;;;;;;;;;;;;14.68;100.00;101146.41;2612254;36;19976;-56
2022/06/19 02:42:08;;;;;;;;;;;;;;;14.52;100.00;101194.97;2612533;36;20038;-59
2022/06/19 02:44:38;;;;;;;;;;;;;;;14.45;100.00;101239.94;2611908;36;19951;-60
2022/06/19 02:47:10;;;;;;;;;;;;;;;14.68;100.00;101271.03;2613221;36;20417;-57
2022/06/19 02:49:39;;;;;;;;;;;;;;;14.79;100.00;101253.69;2613193;36;20011;-58
2022/06/19 02:52:08;;;;;;;;;;;;;;;14.78;100.00;101218.63;2613225;36;19981;-53
2022/06/19 02:54:36;;;;;;;;;;;;;;;14.78;100.00;101169.84;2612991;36;20443;-56
2022/06/19 02:57:12;;;;;;;;;;;;;;;14.74;100.00;101138.63;2614338;36;19950;-57
2022/06/19 02:59:40;;;;;;;;;;;;;;;14.75;100.00;101140.34;2613791;36;19951;-54
2022/06/19 03:02:11;;;;;;;;;;;;;;;14.78;100.00;101126.50;2612907;36;19950;-56
2022/06/19 03:04:42;;;;;;;;;;;;;;;14.87;100.00;101098.47;2613433;31;20465;-54
2022/06/19 03:07:10;;;;;;;;;;;;;;;14.76;100.00;101144.78;2613597;31;19950;-55
2022/06/19 03:09:39;;;;;;;;;;;;;;;14.76;100.00;101261.28;2613433;36;19950;-56
2022/06/19 03:12:07;;;;;;;;;;;;;;;14.64;100.00;101353.59;2613248;36;20577;-55
2022/06/19 03:14:35;;;;;;;;;;;;;;;14.70;100.00;101344.03;2613253;36;20773;-59
2022/06/19 03:17:03;;;;;;;;;;;;;;;14.83;100.00;101273.22;2613830;36;19985;-54
2022/06/19 03:19:34;;;;;;;;;;;;;;;14.84;100.00;101207.16;2614053;36;19953;-57
2022/06/19 03:22:02;;;;;;;;;;;;;;;14.90;100.00;101184.88;2613893;36;19955;-57
2022/06/19 03:24:30;;;;;;;;;;;;;;;14.92;100.00;101182.00;2613890;36;19978;-56
2022/06/19 03:26:58;;;;;;;;;;;;;;;14.83;100.00;101172.94;2614068;36;19969;-57
2022/06/19 03:29:26;;;;;;;;;;;;;;;14.89;100.00;101135.22;2614509;36;19958;-58
2022/06/19 03:31:54;;;;;;;;;;;;;;;14.96;100.00;101108.34;2614027;36;19947;-56
2022/06/19 03:34:22;;;;;;;;;;;;;;;14.90;100.00;101119.81;2613834;36;19966;-58
2022/06/19 03:36:53;;;;;;;;;;;;;;;14.97;100.00;101110.06;2614313;36;19950;-57
2022/06/19 03:39:21;;;;;;;;;;;;;;;14.97;100.00;101134.44;2613517;36;19974;-57
2022/06/19 03:41:49;;;;;;;;;;;;;;;15.02;100.00;101096.84;2613494;36;19958;-58
2022/06/19 03:44:17;;;;;;;;;;;;;;;15.11;100.00;100974.94;2613883;36;19951;-58
2022/06/19 03:46:45;;;;;;;;;;;;;;;14.91;100.00;100974.31;2613735;36;19974;-59
2022/06/19 03:49:13;;;;;;;;;;;;;;;14.90;100.00;100949.09;2613249;36;19968;-57
2022/06/19 03:51:41;;;;;;;;;;;;;;;14.86;100.00;100907.06;2614130;36;19955;-58
2022/06/19 03:54:12;;;;;;;;;;;;;;;14.74;100.00;100868.56;2613969;36;20332;-57
2022/06/19 03:56:40;;;;;;;;;;;;;;;14.77;100.00;100843.88;2613683;36;19950;-57
2022/06/19 03:59:10;;;;;;;;;;;;;;;14.77;100.00;100821.34;2614158;31;20538;-56
2022/06/19 04:01:39;;;;;;;;;;;;;;;14.79;100.00;100859.94;2613241;36;19981;-55
2022/06/19 04:04:07;;;;;;;;;;;;;;;14.76;100.00;100874.66;2613196;36;19947;-59
2022/06/19 04:06:37;;;;;;;;;;;;;;;14.96;100.00;100868.97;2612976;36;19946;-57
2022/06/19 04:09:07;;;;;;;;;;;;;;;14.98;100.00;100889.47;2613827;31;19954;-57
2022/06/19 04:11:38;;;;;;;;;;;;;;;15.12;100.00;100911.53;2613615;36;19954;-56
2022/06/19 04:14:07;;;;;;;;;;;;;;;15.18;100.00;100929.84;2614086;36;20361;-56
2022/06/19 04:16:35;;;;;;;;;;;;;;;15.26;100.00;100959.72;2613868;36;19947;-56
2022/06/19 04:19:04;;;;;;;;;;;;;;;15.28;100.00;100963.09;2613007;36;20457;-59
2022/06/19 04:21:34;;;;;;;;;;;;;;;15.29;100.00;100966.69;2613502;36;20344;-56
2022/06/19 04:24:04;;;;;;;;;;;;;;;15.39;100.00;100980.97;2613476;36;19951;-57
2022/06/19 04:26:33;;;;;;;;;;;;;;;15.35;100.00;100977.72;2613849;31;19954;-57
2022/06/19 04:29:05;;;;;;;;;;;;;;;15.42;100.00;100965.19;2613589;36;20348;-60
2022/06/19 04:31:33;;;;;;;;;;;;;;;15.55;100.00;100943.03;2613604;36;19946;-58
2022/06/19 04:34:01;;;;;;;;;;;;;;;15.58;100.00;100917.44;2613888;36;19962;-59
2022/06/19 04:36:31;;;;;;;;;;;;;;;15.38;100.00;100900.59;2614781;36;19959;-60
2022/06/19 04:39:00;;;;;;;;;;;;;;;15.26;100.00;100891.94;2612545;32;19950;-58
2022/06/19 04:41:29;;;;;;;;;;;;;;;15.22;100.00;100863.44;2612791;36;19973;-60
2022/06/19 04:43:58;;;;;;;;;;;;;;;15.31;100.00;100802.81;2613854;36;20009;-58
2022/06/19 04:46:29;;;;;;;;;;;;;;;15.33;100.00;100735.69;2613618;36;20359;-58
2022/06/19 04:48:57;;;;;;;;;;;;;;;15.13;100.00;100677.41;2613154;36;19950;-60
2022/06/19 04:51:25;;;;;;;;;;;;;;;15.10;100.00;100656.06;2613317;36;19953;-55
2022/06/19 04:53:53;;;;;;;;;;;;;;;15.11;100.00;100611.69;2612878;36;19977;-59
2022/06/19 04:56:22;;;;;;;;;;;;;;;15.03;100.00;100594.41;2614334;31;19969;-57
2022/06/19 04:58:50;;;;;;;;;;;;;;;14.92;100.00;100653.53;2614031;36;19962;-56
2022/06/19 05:01:23;;;;;;;;;;;;;;;14.94;100.00;100801.38;2612864;31;19981;-57
2022/06/19 05:03:55;;;;;;;;;;;;;;;14.81;100.00;100941.91;2612637;31;20005;-56
2022/06/19 05:06:23;;;;;;;;;;;;;;;14.75;100.00;100959.66;2613034;36;20429;-56
2022/06/19 05:08:51;;;;;;;;;;;;;;;14.88;100.00;100991.75;2612965;36;19981;-55
2022/06/19 05:11:20;;;;;;;;;;;;;;;15.11;100.00;101010.19;2612678;36;19970;-55
2022/06/19 05:13:48;;;;;;;;;;;;;;;15.01;100.00;101030.09;2613426;31;20039;-56
2022/06/19 05:16:17;;;;;;;;;;;;;;;14.98;100.00;101026.88;2613347;36;19958;-56
2022/06/19 05:18:46;;;;;;;;;;;;;;;14.91;100.00;101023.94;2613201;31;19973;-56
2022/06/19 05:21:17;;;;;;;;;;;;;;;14.88;100.00;101005.28;2612162;36;19947;-59
2022/06/19 05:23:46;;;;;;;;;;;;;;;14.89;100.00;100982.63;2613181;36;20427;-59
2022/06/19 05:26:16;;;;;;;;;;;;;;;14.95;100.00;100976.53;2613707;31;19993;-57
2022/06/19 05:28:44;;;;;;;;;;;;;;;14.94;100.00;100991.09;2612981;36;20076;-56
2022/06/19 05:31:12;;;;;;;;;;;;;;;15.06;100.00;100995.25;2612008;36;19985;-60
2022/06/19 05:33:41;;;;;;;;;;;;;;;15.09;100.00;101036.56;2613676;31;19953;-57
2022/06/19 05:36:09;;;;;;;;;;;;;;;15.36;100.00;101047.22;2613724;36;19950;-57
2022/06/19 05:38:40;;;;;;;;;;;;;;;15.21;100.00;101051.56;2612847;36;20336;-57
2022/06/19 05:41:08;;;;;;;;;;;;;;;15.13;100.00;101044.22;2613226;36;19954;-56
2022/06/19 05:43:37;;;;;;;;;;;;;;;14.77;100.00;101062.50;2612977;36;19977;-58
2022/06/19 05:46:06;;;;;;;;;;;;;;;15.05;100.00;101042.31;2613364;36;20323;-57
2022/06/19 05:48:36;;;;;;;;;;;;;;;15.13;100.00;101065.91;2613392;36;20471;-53
2022/06/19 05:51:05;;;;;;;;;;;;;;;15.05;100.00;101093.81;2613145;36;19955;-58
2022/06/19 05:53:34;;;;;;;;;;;;;;;15.21;100.00;101076.81;2613112;36;19955;-55
2022/06/19 05:56:06;;;;;;;;;;;;;;;15.30;100.00;101060.59;2613718;36;19950;-58
2022/06/19 05:58:34;;;;;;;;;;;;;;;15.48;100.00;101064.06;2613030;36;20336;-51
2022/06/19 06:01:02;;;;;;;;;;;;;;;15.48;100.00;101071.34;2612454;36;20006;-57
2022/06/19 06:03:31;;;;;;;;;;;;;;;15.21;100.00;101075.97;2612902;31;19978;-57
2022/06/19 06:06:01;;;;;;;;;;;;;;;14.73;100.00;101090.91;2612640;36;19950;-59
2022/06/19 06:08:30;;;;;;;;;;;;;;;14.63;100.00;101107.25;2612545;31;20000;-57
2022/06/19 06:10:58;;;;;;;;;;;;;;;14.72;100.00;101081.91;2613083;36;19950;-53
2022/06/19 06:13:29;;;;;;;;;;;;;;;14.85;100.00;101065.22;2613070;36;19951;-56
2022/06/19 06:15:57;;;;;;;;;;;;;;;14.89;100.00;101047.66;2613721;36;20013;-59
2022/06/19 06:18:26;;;;;;;;;;;;;;;14.77;100.00;101038.94;2612628;36;19974;-56
2022/06/19 06:20:56;;;;;;;;;;;;;;;14.45;100.00;101029.53;2611431;36;19954;-55
2022/06/19 06:23:24;;;;;;;;;;;;;;;14.66;100.00;101021.09;2612673;36;19947;-54
2022/06/19 06:25:59;;;;;;;;;;;;;;;14.74;100.00;101057.34;2613595;36;19954;-55
2022/06/19 06:28:30;;;;;;;;;;;;;;;14.39;100.00;101105.16;2612548;36;19955;-53
2022/06/19 06:30:58;;;;;;;;;;;;;;;14.23;100.00;101095.84;2612413;36;19946;-49
2022/06/19 06:33:27;;;;;;;;;;;;;;;14.25;100.00;101104.69;2612424;36;20470;-53
2022/06/19 06:35:55;;;;;;;;;;;;;;;14.09;100.00;101147.78;2613131;36;20427;-54
2022/06/19 06:38:23;;;;;;;;;;;;;;;13.96;100.00;101140.91;2612469;36;19950;-57
2022/06/19 06:40:51;;;;;;;;;;;;;;;14.31;100.00;101155.50;2612488;36;19951;-54
2022/06/19 06:43:20;;;;;;;;;;;;;;;14.55;100.00;101186.53;2612523;36;19973;-53
2022/06/19 06:45:51;;;;;;;;;;;;;;;14.23;100.00;101212.25;2613545;36;19977;-56
2022/06/19 06:48:19;;;;;;;;;;;;;;;14.19;100.00;101219.84;2612606;36;20533;-52
2022/06/19 06:50:48;;;;;;;;;;;;;;;14.34;100.00;101224.75;2612741;36;19958;-53
2022/06/19 06:53:17;;;;;;;;;;;;;;;14.48;100.00;101218.78;2614224;36;19949;-53
2022/06/19 06:55:45;;;;;;;;;;;;;;;14.35;100.00;101216.47;2616551;32;19970;-57
2022/06/19 06:58:17;;;;;;;;;;;;;;;14.24;100.00;101221.25;2615183;36;19973;-58
2022/06/19 07:00:45;;;;;;;;;;;;;;;14.29;100.00;101208.94;2612743;36;19977;-53
2022/06/19 07:03:16;;;;;;;;;;;;;;;14.36;100.00;101210.03;2613474;36;19990;-56
2022/06/19 07:05:44;;;;;;;;;;;;;;;13.83;100.00;101210.75;2613405;36;19977;-53
2022/06/19 07:08:12;;;;;;;;;;;;;;;13.75;100.00;101216.03;2613391;36;19981;-55
2022/06/19 07:10:40;;;;;;;;;;;;;;;13.88;100.00;101218.44;2612714;36;19977;-54
2022/06/19 07:13:08;;;;;;;;;;;;;;;14.08;100.00;101228.16;2613503;36;20420;-57
2022/06/19 07:15:36;;;;;;;;;;;;;;;14.13;100.00;101252.94;2613001;36;19955;-55
2022/06/19 07:18:04;;;;;;;;;;;;;;;14.17;100.00;101269.72;2613309;36;19946;-51
2022/06/19 07:20:35;;;;;;;;;;;;;;;14.22;100.00;101272.81;2613230;36;19973;-56
2022/06/19 07:23:05;;;;;;;;;;;;;;;14.28;100.00;101272.25;2613735;36;20050;-54
2022/06/19 07:25:33;;;;;;;;;;;;;;;14.43;100.00;101271.72;2613728;36;19977;-55
2022/06/19 07:28:01;;;;;;;;;;;;;;;14.32;100.00;101289.03;2614179;36;19954;-53
2022/06/19 07:30:30;;;;;;;;;;;;;;;14.31;100.00;101282.75;2612485;36;19946;-57
2022/06/19 07:32:58;;;;;;;;;;;;;;;14.43;100.00;101279.84;2611826;36;19950;-58
2022/06/19 07:35:26;;;;;;;;;;;;;;;14.25;100.00;101272.53;2612878;36;19970;-58
2022/06/19 07:37:57;;;;;;;;;;;;;;;14.36;100.00;101264.19;2613491;36;19951;-53
2022/06/19 07:40:26;;;;;;;;;;;;;;;14.35;100.00;101262.50;2613077;31;20447;-58
2022/06/19 07:42:54;;;;;;;;;;;;;;;14.33;100.00;101259.09;2613543;36;20439;-59
2022/06/19 07:45:22;;;;;;;;;;;;;;;14.49;100.00;101250.31;2613346;36;19957;-56
2022/06/19 07:50:31;;;;;;;;;;;;;;;14.49;100.00;101263.00;2612546;36;20321;-58
2022/06/19 07:53:02;;;;;;;;;;;;;;;14.45;100.00;101267.00;2613555;36;19981;-59
2022/06/19 07:55:31;;;;;;;;;;;;;;;14.20;100.00;101264.84;2613252;36;19946;-58
2022/06/19 07:58:00;;;;;;;;;;;;;;;14.10;100.00;101276.72;2614153;36;20367;-57
2022/06/19 08:00:30;;;;;;;;;;;;;;;14.36;100.00;101291.28;2612566;36;19957;-56
2022/06/19 08:02:58;;;;;;;;;;;;;;;14.32;100.00;101295.28;2612811;36;19947;-55
2022/06/19 08:05:27;;;;;;;;;;;;;;;14.43;100.00;101290.66;2613180;36;19951;-56
2022/06/19 08:07:57;;;;;;;;;;;;;;;14.42;100.00;101288.97;2610689;36;19967;-60
2022/06/19 08:10:28;;;;;;;;;;;;;;;14.55;100.00;101284.06;2612354;36;20064;-59
2022/06/19 08:12:57;;;;;;;;;;;;;;;14.70;100.00;101285.25;2613461;36;19959;-57
2022/06/19 08:15:25;;;;;;;;;;;;;;;14.60;100.00;101297.97;2613749;36;19950;-56
2022/06/19 08:17:53;;;;;;;;;;;;;;;14.75;100.00;101294.78;2612389;31;19947;-59
2022/06/19 08:20:23;;;;;;;;;;;;;;;14.58;100.00;101272.91;2613383;36;19984;-59
2022/06/19 08:22:51;;;;;;;;;;;;;;;14.74;100.00;101282.25;2613661;36;19951;-54
2022/06/19 08:25:21;;;;;;;;;;;;;;;14.53;100.00;101277.91;2613218;36;19946;-57
2022/06/19 08:27:53;;;;;;;;;;;;;;;14.58;100.00;101272.91;2612537;36;19946;-59
2022/06/19 08:30:22;;;;;;;;;;;;;;;14.95;100.00;101260.28;2613326;36;19958;-57
2022/06/19 08:32:50;;;;;;;;;;;;;;;14.88;100.00;101260.03;2612746;36;20367;-58
2022/06/19 08:35:19;;;;;;;;;;;;;;;14.91;100.00;101257.00;2613327;36;20055;-55
2022/06/19 08:37:49;;;;;;;;;;;;;;;14.86;100.00;101232.25;2612536;36;19962;-57
2022/06/19 08:40:26;;;;;;;;;;;;;;;15.13;100.00;101228.56;2612883;36;20413;-58
2022/06/19 08:43:02;;;;;;;;;;;;;;;15.17;100.00;101223.72;2613320;31;19955;-59
2022/06/19 08:45:36;;;;;;;;;;;;;;;15.09;100.00;101205.53;2613375;36;19958;-58
2022/06/19 08:48:21;;;;;;;;;;;;;;;14.93;100.00;101199.94;2612046;36;20292;-58
2022/06/19 08:50:53;;;;;;;;;;;;;;;14.89;100.00;101215.69;2613879;36;19950;-60
2022/06/19 08:53:31;;;;;;;;;;;;;;;14.59;100.00;101204.19;2612991;36;19947;-59
2022/06/19 08:56:01;;;;;;;;;;;;;;;14.85;100.00;101206.16;2612779;36;19953;-55
2022/06/19 08:58:36;;;;;;;;;;;;;;;14.52;100.00;101213.94;2612460;36;19970;-56
2022/06/19 09:01:10;;;;;;;;;;;;;;;14.84;100.00;101212.56;2612552;36;19977;-56
2022/06/19 09:06:25;;;;;;;;;;;;;;;15.41;100.00;101220.31;2613749;36;20388;-55
2022/06/19 09:09:03;;;;;;;;;;;;;;;15.68;100.00;101248.28;2612692;36;19957;-57
2022/06/19 09:11:36;;;;;;;;;;;;;;;15.98;100.00;101257.84;2612390;36;19946;-59
2022/06/19 09:14:11;;;;;;;;;;;;;;;15.68;100.00;101251.00;2613059;36;19978;-57
2022/06/19 09:16:40;;;;;;;;;;;;;;;15.47;100.00;101254.94;2612005;31;19950;-59
2022/06/19 09:19:13;;;;;;;;;;;;;;;15.79;100.00;101242.63;2612215;36;20527;-59
2022/06/19 09:21:49;;;;;;;;;;;;;;;16.11;100.00;101217.50;2613644;36;20379;-56
2022/06/19 09:24:34;;;;;;;;;;;;;;;16.35;100.00;101210.44;2612945;31;19950;-58
2022/06/19 09:27:03;;;;;;;;;;;;;;;16.18;100.00;101185.13;2612077;36;19985;-58
2022/06/19 09:29:36;;;;;;;;;;;;;;;16.17;100.00;101160.84;2608423;36;19961;-59
2022/06/19 09:32:08;;;;;;;;;;;;;;;16.32;100.00;101175.47;2612667;36;19975;-58
2022/06/19 09:34:39;;;;;;;;;;;;;;;15.77;100.00;101190.34;2612775;36;19970;-58
2022/06/19 09:37:11;;;;;;;;;;;;;;;16.07;100.00;101205.25;2612212;36;20503;-59
2022/06/19 09:39:47;;;;;;;;;;;;;;;16.18;100.00;101211.41;2612571;36;19946;-57
2022/06/19 09:42:17;;;;;;;;;;;;;;;16.27;100.00;101208.56;2612348;31;19951;-56
2022/06/19 09:44:50;;;;;;;;;;;;;;;16.46;100.00;101193.84;2612238;31;19946;-59
2022/06/19 09:47:22;;;;;;;;;;;;;;;17.19;100.00;101191.34;2611917;36;20004;-60
2022/06/19 09:49:53;;;;;;;;;;;;;;;17.07;100.00;101181.88;2612827;36;19997;-58
2022/06/19 09:52:23;;;;;;;;;;;;;;;17.65;100.00;101160.81;2612711;36;19989;-58
2022/06/19 09:54:53;;;;;;;;;;;;;;;18.52;100.00;101144.41;2612082;36;20403;-60
2022/06/19 09:57:24;;;;;;;;;;;;;;;18.76;100.00;101138.91;2612911;36;20789;-58
2022/06/19 09:59:57;;;;;;;;;;;;;;;19.20;100.00;101122.69;2610381;36;19974;-58
2022/06/19 10:02:29;;;;;;;;;;;;;;;19.33;100.00;101115.72;2603519;36;19954;-57
2022/06/19 10:05:01;;;;;;;;;;;;;;;19.00;100.00;101099.72;2604345;36;19950;-58
2022/06/19 10:07:33;;;;;;;;;;;;;;;18.81;100.00;101101.88;2612116;36;19951;-58
2022/06/19 10:10:04;;;;;;;;;;;;;;;18.29;100.00;101105.38;2611994;36;19951;-57
2022/06/19 10:12:36;;;;;;;;;;;;;;;17.65;100.00;101106.38;2612755;36;19954;-57
2022/06/19 10:15:08;;;;;;;;;;;;;;;17.24;100.00;101131.00;2612907;36;19950;-55
2022/06/19 10:17:48;;;;;;;;;;;;;;;17.73;100.00;101136.28;2613230;36;19954;-58
2022/06/19 10:20:17;;;;;;;;;;;;;;;17.48;100.00;101144.53;2611469;31;19982;-58
2022/06/19 10:22:53;;;;;;;;;;;;;;;17.84;100.00;101148.66;2613149;36;19974;-59
2022/06/19 10:25:36;;;;;;;;;;;;;;;17.91;100.00;101167.91;2614183;31;19946;-58
2022/06/19 10:28:11;;;;;;;;;;;;;;;17.97;100.00;101189.81;2613174;36;19950;-57
2022/06/19 10:30:45;;;;;;;;;;;;;;;17.68;100.00;101220.34;2614392;36;19965;-58
2022/06/19 10:33:24;;;;;;;;;;;;;;;17.15;100.00;101223.50;2613338;36;19951;-59
2022/06/19 10:35:53;;;;;;;;;;;;;;;16.90;100.00;101208.19;2613750;36;20060;-58
2022/06/19 10:38:36;;;;;;;;;;;;;;;17.28;100.00;101213.97;2614244;36;20432;-59
2022/06/19 10:41:09;;;;;;;;;;;;;;;17.28;100.00;101219.41;2613542;36;19977;-59
2022/06/19 10:43:54;;;;;;;;;;;;;;;17.51;100.00;101214.94;2611816;36;20421;-60
2022/06/19 10:46:27;;;;;;;;;;;;;;;17.79;100.00;101222.72;2612792;36;20434;-60
2022/06/19 10:48:58;;;;;;;;;;;;;;;18.00;100.00;101221.31;2613266;36;19947;-59
2022/06/19 10:51:33;;;;;;;;;;;;;;;17.76;100.00;101217.63;2612237;36;19954;-58
2022/06/19 10:54:12;;;;;;;;;;;;;;;17.42;100.00;101231.47;2613286;36;19962;-57
2022/06/19 10:56:48;;;;;;;;;;;;;;;17.14;100.00;101221.78;2612933;36;19954;-59
2022/06/19 10:59:17;;;;;;;;;;;;;;;17.71;100.00;101216.44;2612661;36;19967;-58
2022/06/19 11:04:39;;;;;;;;;;;;;;;17.78;100.00;101236.50;2610279;36;20438;-59
2022/06/19 11:07:11;;;;;;;;;;;;;;;17.75;100.00;101240.41;2613181;36;19951;-59
2022/06/19 11:09:41;;;;;;;;;;;;;;;17.85;100.00;101232.06;2613494;36;20468;-58
2022/06/19 11:12:17;;;;;;;;;;;;;;;17.87;100.00;101216.38;2612383;36;19954;-59
2022/06/19 11:14:50;;;;;;;;;;;;;;;17.73;100.00;101217.97;2612884;36;19954;-59
2022/06/19 11:17:31;;;;;;;;;;;;;;;17.46;100.00;101211.91;2613710;36;19962;-57
2022/06/19 11:19:59;;;;;;;;;;;;;;;17.57;100.00;101218.00;2613878;36;19951;-60
2022/06/19 11:22:40;;;;;;;;;;;;;;;17.96;100.00;101181.81;2613637;36;19950;-59
2022/06/19 11:25:24;;;;;;;;;;;;;;;18.41;100.00;101168.50;2613511;36;20451;-58
2022/06/19 11:27:52;;;;;;;;;;;;;;;18.31;100.00;101166.00;2612985;36;19981;-59
2022/06/19 11:30:27;;;;;;;;;;;;;;;18.68;100.00;101178.00;2613519;36;19975;-59
2022/06/19 11:32:58;;;;;;;;;;;;;;;19.15;100.00;101152.41;2612777;36;19975;-59
2022/06/19 11:35:27;;;;;;;;;;;;;;;19.95;100.00;101148.09;2612738;36;20017;-61
2022/06/19 11:37:57;;;;;;;;;;;;;;;20.02;100.00;101150.06;2613755;36;20349;-59
2022/06/19 11:40:31;;;;;;;;;;;;;;;20.12;100.00;101145.97;2612770;36;19957;-59
2022/06/19 11:43:00;;;;;;;;;;;;;;;20.10;100.00;101155.44;2613677;36;19947;-60
2022/06/19 11:45:31;;;;;;;;;;;;;;;20.07;100.00;101166.75;2612231;36;19950;-57
2022/06/19 11:48:07;;;;;;;;;;;;;;;19.42;100.00;101175.50;2613065;31;19946;-61
2022/06/19 11:50:56;;;;;;;;;;;;;;;19.48;100.00;101160.25;2605396;36;20034;-57
2022/06/19 11:53:25;;;;;;;;;;;;;;;19.66;100.00;101197.28;2615063;36;19953;-59
2022/06/19 11:56:11;;;;;;;;;;;;;;;19.34;100.00;101197.41;2614751;36;19950;-59
2022/06/19 11:58:41;;;;;;;;;;;;;;;18.75;100.00;101203.50;2612468;36;20438;-58
2022/06/19 12:01:10;;;;;;;;;;;;;;;17.71;100.00;101244.53;2612445;36;20466;-57
2022/06/19 12:03:47;;;;;;;;;;;;;;;17.63;100.00;101260.88;2613074;36;19974;-61
2022/06/19 12:06:16;;;;;;;;;;;;;;;17.47;100.00;101278.91;2612492;36;19951;-56
2022/06/19 12:08:51;;;;;;;;;;;;;;;17.93;100.00;101277.50;2612752;36;19954;-58
2022/06/19 12:11:35;;;;;;;;;;;;;;;18.18;100.00;101257.34;2612950;36;19981;-59
2022/06/19 12:14:04;;;;;;;;;;;;;;;18.55;100.00;101277.59;2611969;36;20454;-58
2022/06/19 12:16:32;;;;;;;;;;;;;;;18.47;100.00;101302.16;2613026;31;19950;-58
2022/06/19 12:19:17;;;;;;;;;;;;;;;18.43;100.00;101319.03;2611614;36;20285;-59
2022/06/19 12:21:50;;;;;;;;;;;;;;;18.70;100.00;101312.28;2613009;36;20078;-59
2022/06/19 12:24:21;;;;;;;;;;;;;;;18.75;100.00;101312.59;2613382;31;19951;-60
2022/06/19 12:26:51;;;;;;;;;;;;;;;18.46;100.00;101322.28;2612393;36;19947;-61
2022/06/19 12:29:22;;;;;;;;;;;;;;;18.84;100.00;101325.13;2613214;36;19950;-59
2022/06/19 12:31:50;;;;;;;;;;;;;;;19.13;100.00;101320.06;2611918;36;20005;-60
2022/06/19 12:34:26;;;;;;;;;;;;;;;19.46;100.00;101317.91;2611310;36;19958;-60
2022/06/19 12:36:57;;;;;;;;;;;;;;;19.58;100.00;101332.84;2613960;36;20394;-63
2022/06/19 12:39:27;;;;;;;;;;;;;;;18.85;100.00;101348.66;2610226;36;19954;-58
2022/06/19 12:42:00;;;;;;;;;;;;;;;19.38;100.00;101342.56;2611177;36;19950;-58
2022/06/19 12:44:36;;;;;;;;;;;;;;;19.78;100.00;101354.19;2613641;36;19946;-59
2022/06/19 12:47:12;;;;;;;;;;;;;;;19.85;100.00;101337.94;2613406;36;20436;-60
2022/06/19 12:49:50;;;;;;;;;;;;;;;20.36;100.00;101342.66;2612926;36;19954;-58
2022/06/19 12:52:25;;;;;;;;;;;;;;;20.77;100.00;101355.84;2613097;36;19955;-59
2022/06/19 12:55:15;;;;;;;;;;;;;;;20.16;100.00;101345.13;2614105;36;19950;-59